Data for 01/02/2013

Time Sea-Level Adjusted Pressure Absolute Pressure Temperature Relative Humidity Dew Point   
(mb) (inHg) (mb) (inHg) (C) (F) (%) (C) (F)
00:05 1026 30.3 855 25.25 -10.6 13 79 -13.6 7.5
00:10 1026 30.3 855 25.25 -10.5 13.2 78 -13.6 7.4
00:15 1026 30.3 855 25.25 -10.4 13.2 78 -13.6 7.5
00:20 1026 30.3 855 25.25 -10.7 12.8 79 -13.6 7.6
00:25 1026 30.3 855 25.25 -10.6 12.9 79 -13.6 7.5
00:30 1026 30.3 855 25.25 -10.5 13 78 -13.7 7.3
00:35 1026 30.3 855 25.25 -10.7 12.7 79 -13.8 7.2
00:40 1026 30.3 855 25.25 -10.7 12.7 78 -13.8 7.2
00:45 1026 30.3 855 25.25 -10.6 13 78 -13.7 7.3
00:50 1026 30.3 855 25.25 -10.5 13.1 78 -13.6 7.5
00:55 1026 30.3 855 25.25 -10.4 13.4 77 -13.6 7.6
01:00 1026 30.3 855 25.25 -10.4 13.3 77 -13.7 7.3
01:05 1026 30.3 855 25.25 -10.8 12.5 79 -13.7 7.3
01:10 1026 30.3 855 25.25 -10.9 12.4 79 -13.8 7.1
01:15 1026 30.3 855 25.25 -10.9 12.4 79 -13.9 7
01:20 1026 30.3 855 25.25 -11 12.2 80 -13.8 7.1
01:25 1026 30.3 855 25.25 -11.1 12.1 79 -14 6.8
01:30 1026 30.3 855 25.25 -10.9 12.4 78 -14 6.8
01:35 1026 30.3 855 25.25 -11 12.2 78 -14.1 6.6
01:40 1026 30.3 855 25.25 -11.3 11.6 79 -14.3 6.3
01:45 1026 30.3 855 25.25 -11.4 11.5 79 -14.3 6.2
01:50 1026 30.3 855 25.25 -11.4 11.5 79 -14.3 6.3
01:55 1026 30.3 855 25.25 -11.2 11.9 80 -14 6.9
02:00 1026 30.3 855 25.25 -11.2 11.9 82 -13.6 7.6
02:05 1026 30.3 855 25.25 -11 12.1 79 -14 6.8
02:10 1026 30.3 855 25.25 -11.2 11.9 81 -13.8 7.2
02:15 1026 30.3 855 25.25 -11.1 11.9 79 -14.1 6.5
02:20 1026 30.3 855 25.25 -11.3 11.7 78 -14.3 6.2
02:25 1026 30.3 855 25.25 -11.4 11.6 79 -14.4 6.1
02:30 1026 30.3 855 25.25 -11.4 11.5 79 -14.4 6.1
02:35 1026 30.3 855 25.25 -11.5 11.4 78 -14.5 5.8
02:40 1026 30.3 855 25.25 -11.4 11.5 79 -14.4 6.2
02:45 1026 30.3 855 25.25 -11.4 11.5 78 -14.5 5.9
02:50 1026 30.3 855 25.25 -11.6 11.1 78 -14.7 5.5
02:55 1026 30.3 855 25.25 -11.6 11.1 82 -14.1 6.6
03:00 1026 30.3 855 25.25 -11.7 11 78 -14.8 5.4
03:05 1026 30.3 855 25.25 -11.8 10.9 82 -14.2 6.5
03:10 1026 30.3 855 25.25 -11.9 10.5 77 -15.1 4.8
03:15 1026 30.3 855 25.25 -12.1 10.2 78 -15.2 4.6
03:20 1026 30.3 855 25.25 -12.2 10.1 77 -15.4 4.3
03:25 1026 30.3 855 25.25 -12.2 10.1 81 -14.9 5.2
03:30 1026 30.3 855 25.25 -12.1 10.3 77 -15.3 4.5
03:35 1026 30.3 855 25.25 -12.1 10.3 78 -15.1 4.8
03:40 1026 30.3 855 25.25 -12 10.3 80 -14.8 5.3
03:45 1026 30.3 855 25.25 -12 10.3 79 -15 5
03:50 1026 30.3 855 25.25 -12.2 10 79 -15.1 4.7
03:55 1026 30.3 855 25.25 -12.2 10 82 -14.7 5.5
04:00 1026 30.3 856 25.28 -11.8 10.9 81 -14.3 6.2
04:05 1026 30.3 856 25.28 -11.6 11.1 77 -14.8 5.3
04:10 1026 30.3 856 25.28 -11.6 11.1 79 -14.6 5.7
04:15 1026 30.3 856 25.28 -11.5 11.4 77 -14.6 5.6
04:20 1026 30.3 856 25.28 -11.8 10.7 77 -15.1 4.9
04:25 1026 30.3 856 25.28 -12 10.5 76 -15.4 4.3
04:30 1026 30.3 856 25.28 -12.2 10 77 -15.5 4.2
04:35 1026 30.3 856 25.28 -12.4 9.7 78 -15.5 4.1
04:40 1026 30.3 856 25.28 -12.4 9.6 78 -15.5 4.1
04:45 1026 30.3 856 25.28 -12.5 9.5 78 -15.6 4
04:50 1026 30.3 856 25.28 -12.6 9.3 78 -15.6 3.8
04:55 1026 30.3 856 25.28 -12.4 9.7 78 -15.5 4.1
05:00 1026 30.3 856 25.28 -12.3 9.9 76 -15.7 3.8
05:05 1026 30.3 856 25.28 -12.4 9.6 77 -15.6 3.9
05:10 1026 30.3 856 25.28 -12.4 9.8 78 -15.5 4.1
05:15 1026 30.3 856 25.28 -12.2 10 77 -15.5 4.1
05:20 1026 30.3 856 25.28 -12.4 9.6 77 -15.6 3.9
05:25 1026 30.3 856 25.28 -12.5 9.6 77 -15.7 3.8
05:30 1026 30.3 856 25.28 -12.3 9.8 78 -15.5 4.2
05:35 1026 30.3 855 25.25 -12.2 10.1 77 -15.4 4.3
05:40 1026 30.3 855 25.25 -12.3 9.9 78 -15.4 4.2
05:45 1026 30.3 855 25.25 -12.4 9.7 77 -15.6 3.9
05:50 1026 30.3 855 25.25 -12.6 9.3 78 -15.8 3.6
05:55 1026 30.3 855 25.25 -13 8.6 78 -16.1 3
06:00 1026 30.3 855 25.25 -13.2 8.2 78 -16.2 2.8
06:05 1026 30.3 855 25.25 -13.2 8.2 79 -16.1 3
06:10 1026 30.3 855 25.25 -13.1 8.4 80 -15.9 3.4
06:15 1026 30.3 855 25.25 -13 8.6 80 -15.8 3.6
06:20 1026 30.3 856 25.28 -12.5 9.6 77 -15.7 3.7
06:25 1026 30.3 856 25.28 -12.5 9.5 78 -15.6 4
06:30 1026 30.3 856 25.28 -13 8.5 80 -15.9 3.4
06:35 1026 30.3 855 25.25 -13.8 7.2 86 -15.6 3.9
06:40 1026 30.3 855 25.25 -13.2 8.2 84 -15.4 4.3
06:45 1026 30.3 855 25.25 -12.9 8.8 82 -15.3 4.5
06:50 1026 30.3 855 25.25 -12.3 9.8 78 -15.3 4.4
06:55 1026 30.3 855 25.25 -12.3 9.8 78 -15.5 4.2
07:00 1026 30.3 856 25.28 -12.2 10 78 -15.3 4.4
07:05 1027 30.33 856 25.28 -12.2 10.1 81 -14.8 5.3
07:10 1027 30.33 856 25.28 -12.3 9.9 82 -14.8 5.4
07:15 1026 30.3 856 25.28 -12.5 9.4 81 -15.1 4.8
07:20 1026 30.3 856 25.28 -12.7 9.1 80 -15.5 4.1
07:25 1026 30.3 856 25.28 -12.8 9.1 80 -15.5 4.1
07:30 1026 30.3 856 25.28 -13.2 8.3 79 -16.1 3.1
07:35 1026 30.3 856 25.28 -13.3 8 78 -16.4 2.5
07:40 1027 30.33 856 25.28 -13.2 8.3 76 -16.5 2.4
07:45 1027 30.33 856 25.28 -13.1 8.3 76 -16.6 2.2
07:50 1027 30.33 856 25.28 -13.4 7.8 76 -16.8 1.8
07:55 1027 30.33 856 25.28 -13.9 6.9 78 -17 1.4
08:00 1027 30.33 856 25.28 -14.7 5.5 82 -17.2 1.1
08:05 1027 30.33 856 25.28 -15 5 82 -17.4 0.6
08:10 1027 30.33 856 25.28 -15.5 4.1 82 -17.8 -0.1
08:15 1027 30.33 856 25.28 -15.7 3.7 87 -17.4 0.6
08:20 1027 30.33 856 25.28 -15.5 4.2 86 -17.4 0.8
08:25 1027 30.33 856 25.28 -15.4 4.3 85 -17.4 0.7
08:30 1027 30.33 856 25.28 -15.6 4 86 -17.4 0.6
08:35 1027 30.33 856 25.28 -15.2 4.6 89 -16.7 2
08:40 1027 30.33 856 25.28 -14.2 6.5 84 -16.3 2.6
08:45 1027 30.33 856 25.28 -13.4 7.9 80 -16.2 2.8
08:50 1027 30.33 856 25.28 -13.1 8.4 76 -16.6 2.2
08:55 1027 30.33 856 25.28 -14.9 5.3 78 -17.9 -0.1
09:00 1027 30.33 856 25.28 -15.7 3.8 86 -17.5 0.5
09:05 1027 30.33 856 25.28 -14.9 5.1 84 -17.1 1.1
09:10 1027 30.33 857 25.31 -14.9 5.3 85 -16.8 1.8
09:15 1027 30.33 857 25.31 -14.5 6 83 -16.8 1.8
09:20 1027 30.33 857 25.31 -14.3 6.2 84 -16.4 2.4
09:25 1027 30.33 857 25.31 -13.9 7 81 -16.5 2.4
09:30 1028 30.36 857 25.31 -14 6.9 78 -17 1.5
09:35 1028 30.36 857 25.31 -14.2 6.5 79 -17 1.4
09:40 1028 30.36 857 25.31 -14.2 6.5 77 -17.4 0.7
09:45 1028 30.36 857 25.31 -14.8 5.4 79 -17.6 0.2
09:50 1028 30.36 857 25.31 -14.5 5.9 79 -17.5 0.6
09:55 1028 30.36 857 25.31 -14.2 6.5 76 -17.6 0.3
10:00 1028 30.36 857 25.31 -14.2 6.4 79 -17.2 1.1
10:05 1028 30.36 857 25.31 -13.9 7 77 -17.2 1.1
10:10 1028 30.36 857 25.31 -13.7 7.4 76 -17 1.4
10:15 1028 30.36 857 25.31 -13.8 7.2 75 -17.2 1
10:20 1028 30.36 857 25.31 -14.2 6.5 75 -17.6 0.3
10:25 1028 30.36 857 25.31 -14.4 6.2 81 -17 1.5
10:30 1028 30.36 857 25.31 -13.4 7.9 78 -16.4 2.5
10:35 1028 30.36 857 25.31 -12.3 9.8 76 -15.7 3.7
10:40 1028 30.36 857 25.31 -11.8 10.7 71 -16.1 3.1
10:45 1028 30.36 857 25.31 -11.8 10.8 72 -15.9 3.5
10:50 1028 30.36 857 25.31 -11 12.3 66 -16.2 2.9
10:55 1028 30.36 857 25.31 -11.8 10.8 69 -16.5 2.4
11:00 1028 30.36 857 25.31 -11.9 10.6 69 -16.5 2.4
11:05 1028 30.36 857 25.31 -11.7 10.9 70 -16.2 2.8
11:10 1028 30.36 857 25.31 -11.4 11.4 68 -16.1 3
11:15 1028 30.36 857 25.31 -10.7 12.8 66 -15.8 3.5
11:20 1028 30.36 858 25.34 -9.8 14.3 64 -15.4 4.3
11:25 1028 30.36 857 25.31 -9.3 15.2 65 -14.8 5.4
11:30 1028 30.36 857 25.31 -9.8 14.4 66 -15 5.1
11:35 1028 30.36 857 25.31 -9.6 14.8 65 -15 5
11:40 1028 30.36 858 25.34 -9.1 15.6 64 -14.8 5.4
11:45 1028 30.36 857 25.31 -8.8 16.2 62 -14.8 5.3
11:50 1028 30.36 857 25.31 -8.7 16.3 63 -14.6 5.6
11:55 1028 30.36 857 25.31 -8.5 16.8 62 -14.5 5.9
12:00 1028 30.36 857 25.31 -8.6 16.6 62 -14.6 5.7
12:05 1028 30.36 857 25.31 -8.1 17.3 61 -14.3 6.2
12:10 1028 30.36 857 25.31 -8.1 17.3 62 -14.3 6.3
12:15 1028 30.36 857 25.31 -8 17.6 61 -14.2 6.4
12:20 1028 30.36 857 25.31 -7.5 18.4 60 -14.1 6.6
12:25 1028 30.36 857 25.31 -7.3 18.9 60 -13.8 7.2
12:30 1028 30.36 857 25.31 -7.7 18.2 61 -13.9 7
12:35 1028 30.36 857 25.31 -7.4 18.6 58 -14.4 6
12:40 1028 30.36 857 25.31 -7.4 18.7 58 -14.2 6.4
12:45 1028 30.36 857 25.31 -7.2 19.1 57 -14.4 6.1
12:50 1028 30.36 857 25.31 -7.3 18.8 57 -14.4 6
12:55 1028 30.36 857 25.31 -6.8 19.7 55 -14.5 5.9
13:00 1028 30.36 857 25.31 -6.7 20 55 -14.2 6.4
13:05 1028 30.36 857 25.31 -6.6 20.1 54 -14.4 6.1
13:10 1028 30.36 857 25.31 -6.9 19.6 56 -14.2 6.5
13:15 1028 30.36 857 25.31 -7.7 18.2 60 -14.1 6.7
13:20 1028 30.36 857 25.31 -8.7 16.3 64 -14.4 6
13:25 1028 30.36 857 25.31 -8.4 16.9 61 -14.7 5.5
13:30 1028 30.36 857 25.31 -8.8 16.3 64 -14.4 6
13:35 1028 30.36 857 25.31 -8.6 16.6 63 -14.4 6.1
13:40 1028 30.36 857 25.31 -8.7 16.3 62 -14.8 5.4
13:45 1028 30.36 857 25.31 -8.5 16.8 62 -14.5 5.9
13:50 1028 30.36 857 25.31 -8.3 17.1 60 -14.8 5.4
13:55 1028 30.36 857 25.31 -8 17.5 61 -14.4 6.1
14:00 1028 30.36 857 25.31 -7.8 18 58 -14.7 5.5
14:05 1028 30.36 857 25.31 -7.2 19.1 55 -14.7 5.5
14:10 1028 30.36 857 25.31 -7.7 18.1 59 -14.5 6
14:15 1028 30.36 857 25.31 -8.2 17.2 60 -14.7 5.5
14:20 1027 30.33 857 25.31 -8 17.6 60 -14.5 5.8
14:25 1027 30.33 857 25.31 -7.5 18.5 58 -14.4 6
14:30 1027 30.33 857 25.31 -7.2 19.1 56 -14.6 5.8
14:35 1027 30.33 857 25.31 -7.3 18.9 57 -14.4 6.2
14:40 1027 30.33 857 25.31 -7.5 18.6 57 -14.6 5.6
14:45 1027 30.33 857 25.31 -7.1 19.3 56 -14.4 6.1
14:50 1027 30.33 857 25.31 -6.9 19.7 55 -14.4 6.1
14:55 1027 30.33 857 25.31 -6.7 20 53 -14.7 5.5
15:00 1027 30.33 857 25.31 -6.8 19.7 54 -14.6 5.7
15:05 1027 30.33 857 25.31 -6.8 19.8 55 -14.4 6.1
15:10 1028 30.36 857 25.31 -6.5 20.3 54 -14.4 6
15:15 1028 30.36 857 25.31 -6.4 20.4 53 -14.4 6
15:20 1028 30.36 857 25.31 -6.7 20 55 -14.3 6.2
15:25 1028 30.36 857 25.31 -6.6 20.1 53 -14.7 5.5
15:30 1028 30.36 857 25.31 -6.4 20.4 52 -14.9 5.2
15:35 1028 30.36 857 25.31 -5.6 22 49 -14.7 5.5
15:40 1028 30.36 857 25.31 -5.7 21.8 51 -14.3 6.3
15:45 1028 30.36 857 25.31 -6.2 20.9 51 -14.6 5.6
15:50 1028 30.36 857 25.31 -6.1 21 52 -14.6 5.8
15:55 1028 30.36 857 25.31 -6.5 20.3 53 -14.6 5.8
16:00 1028 30.36 857 25.31 -6.4 20.4 52 -14.8 5.3
16:05 1028 30.36 857 25.31 -5.7 21.7 49 -14.8 5.3
16:10 1028 30.36 857 25.31 -5.4 22.3 48 -14.6 5.6
16:15 1028 30.36 857 25.31 -5.5 22 49 -14.7 5.6
16:20 1028 30.36 857 25.31 -6.2 20.8 53 -14.4 6
16:25 1028 30.36 857 25.31 -7.2 19.1 55 -14.7 5.5
16:30 1028 30.36 857 25.31 -7.6 18.3 56 -14.9 5.2
16:35 1028 30.36 857 25.31 -7.9 17.8 57 -14.9 5.2
16:40 1028 30.36 857 25.31 -8 17.5 58 -15 5
16:45 1028 30.36 857 25.31 -8.3 17 59 -15 4.9
16:50 1028 30.36 857 25.31 -8.2 17.2 59 -14.9 5.1
16:55 1028 30.36 857 25.31 -8 17.6 57 -15 5
17:00 1028 30.36 857 25.31 -7.9 17.8 56 -15.1 4.8
17:05 1028 30.36 857 25.31 -7.8 17.9 56 -15.1 4.8
17:10 1028 30.36 857 25.31 -7.5 18.4 55 -15 4.9
17:15 1028 30.36 857 25.31 -7.7 18.2 56 -15 5
17:20 1028 30.36 857 25.31 -7.8 18 57 -14.9 5.1
17:25 1028 30.36 857 25.31 -8.2 17.3 59 -14.8 5.4
17:30 1028 30.36 857 25.31 -8.3 17 59 -15.1 4.8
17:35 1028 30.36 857 25.31 -8.6 16.5 60 -15 5
17:40 1028 30.36 857 25.31 -9.2 15.5 62 -15.2 4.7
17:45 1028 30.36 857 25.31 -9.8 14.4 65 -15.3 4.5
17:50 1028 30.36 857 25.31 -10 14 66 -15.3 4.5
17:55 1028 30.36 857 25.31 -9.7 14.6 64 -15.4 4.4
18:00 1028 30.36 857 25.31 -9.5 14.9 64 -15.2 4.7
18:05 1028 30.36 857 25.31 -9.7 14.5 64 -15.3 4.4
18:10 1028 30.36 857 25.31 -10 13.9 66 -15.3 4.5
18:15 1028 30.36 857 25.31 -10.3 13.4 67 -15.3 4.5
18:20 1028 30.36 857 25.31 -10.4 13.2 67 -15.4 4.2
18:25 1028 30.36 857 25.31 -10.5 13 67 -15.5 4.1
18:30 1028 30.36 857 25.31 -10.9 12.3 70 -15.5 4.2
18:35 1028 30.36 857 25.31 -11.4 11.6 71 -15.7 3.8
18:40 1028 30.36 857 25.31 -11.4 11.5 71 -15.7 3.8
18:45 1028 30.36 857 25.31 -11.5 11.3 71 -15.7 3.7
18:50 1028 30.36 857 25.31 -11.6 11.1 73 -15.5 4.1
18:55 1028 30.36 857 25.31 -12 10.5 74 -15.7 3.7
19:00 1028 30.36 857 25.31 -11.9 10.6 74 -15.7 3.7
19:05 1028 30.36 857 25.31 -11.7 11 72 -15.8 3.6
19:10 1028 30.36 857 25.31 -12.6 9.3 74 -16.3 2.7
19:15 1028 30.36 857 25.31 -13.2 8.2 78 -16.3 2.7
19:20 1028 30.36 857 25.31 -13.5 7.8 81 -16.1 3
19:25 1028 30.36 857 25.31 -12.9 8.7 76 -16.3 2.6
19:30 1028 30.36 857 25.31 -12.8 8.9 76 -16.2 2.9
19:35 1028 30.36 857 25.31 -13.4 7.9 80 -16.2 2.9
19:40 1028 30.36 857 25.31 -13.1 8.5 78 -16.2 2.8
19:45 1028 30.36 857 25.31 -13.1 8.5 78 -16.2 2.8
19:50 1028 30.36 857 25.31 -13.1 8.5 78 -16.2 2.8
19:55 1028 30.36 857 25.31 -13 8.7 76 -16.3 2.6
20:00 1028 30.36 857 25.31 -13.3 8 79 -16.2 2.9
20:05 1028 30.36 857 25.31 -13.1 8.4 80 -15.9 3.4
20:10 1028 30.36 857 25.31 -12.9 8.8 77 -16.2 2.9
20:15 1028 30.36 857 25.31 -13.3 8 79 -16.2 2.8
20:20 1028 30.36 857 25.31 -13.2 8.3 78 -16.3 2.7
20:25 1028 30.36 857 25.31 -13.1 8.4 77 -16.3 2.6
20:30 1028 30.36 857 25.31 -13.2 8.2 78 -16.2 2.8
20:35 1028 30.36 857 25.31 -13.1 8.5 76 -16.4 2.4
20:40 1027 30.33 857 25.31 -13.2 8.2 78 -16.3 2.6
20:45 1027 30.33 857 25.31 -13 8.6 77 -16.3 2.7
20:50 1027 30.33 857 25.31 -13 8.7 76 -16.4 2.6
20:55 1027 30.33 857 25.31 -13.1 8.5 76 -16.4 2.4
21:00 1027 30.33 857 25.31 -13 8.5 77 -16.3 2.6
21:05 1027 30.33 857 25.31 -12.9 8.8 75 -16.5 2.3
21:10 1027 30.33 857 25.31 -13.1 8.4 75 -16.6 2.1
21:15 1027 30.33 857 25.31 -13.3 8.1 76 -16.6 2
21:20 1027 30.33 857 25.31 -13.2 8.3 75 -16.7 2
21:25 1027 30.33 857 25.31 -13.4 7.9 76 -16.7 1.9
21:30 1027 30.33 857 25.31 -13.7 7.3 77 -17 1.5
21:35 1027 30.33 856 25.28 -13.9 7.1 76 -17.2 1
21:40 1027 30.33 856 25.28 -13.8 7.3 77 -17 1.5
21:45 1027 30.33 856 25.28 -13.4 7.8 77 -16.7 2
21:50 1027 30.33 856 25.28 -13 8.6 75 -16.5 2.3
21:55 1027 30.33 856 25.28 -12.8 9 74 -16.4 2.5
22:00 1027 30.33 856 25.28 -12.5 9.4 74 -16.3 2.6
22:05 1027 30.33 856 25.28 -12.6 9.4 73 -16.5 2.3
22:10 1027 30.33 856 25.28 -12.8 8.9 73 -16.7 1.9
22:15 1027 30.33 856 25.28 -13.2 8.3 74 -17 1.5
22:20 1027 30.33 856 25.28 -13.5 7.7 74 -17.3 0.9
22:25 1027 30.33 856 25.28 -13.9 7.1 74 -17.5 0.5
22:30 1027 30.33 856 25.28 -13.9 7 75 -17.4 0.6
22:35 1027 30.33 856 25.28 -13.7 7.4 74 -17.3 0.8
22:40 1027 30.33 856 25.28 -13.3 8 74 -17 1.4
22:45 1027 30.33 856 25.28 -12.7 9.1 71 -16.9 1.6
22:50 1027 30.33 856 25.28 -12.7 9.1 73 -16.6 2
22:55 1027 30.33 856 25.28 -13.2 8.3 75 -16.7 1.9
23:00 1027 30.33 856 25.28 -13.1 8.5 73 -16.9 1.6
23:05 1027 30.33 856 25.28 -12.7 9.1 72 -16.7 1.9
23:10 1027 30.33 856 25.28 -13 8.6 74 -16.7 1.9
23:15 1027 30.33 856 25.28 -12.6 9.2 72 -16.7 2
23:20 1027 30.33 856 25.28 -12.6 9.3 71 -16.8 1.7
23:25 1027 30.33 856 25.28 -12.9 8.8 72 -16.9 1.6
23:30 1027 30.33 856 25.28 -12.9 8.7 72 -17 1.5
23:35 1027 30.33 856 25.28 -13.1 8.3 72 -17.2 1
23:40 1027 30.33 856 25.28 -13.6 7.6 73 -17.5 0.5
23:45 1027 30.33 856 25.28 -13.8 7.1 73 -17.6 0.3
23:50 1027 30.33 856 25.28 -13.8 7.2 73 -17.6 0.3
23:55 1027 30.33 856 25.28 -13.6 7.5 72 -17.7 0.1
24:00 1027 30.33 856 25.28 -13.6 7.5 71 -17.7 0.1